»·PEaware :: N145AJ KSAN-KPSP

N145AJ :: KSAN-KPSP

FLIGHT INFORMATION

Flight Status: Arrived
Operator: Privately registered:
United States
More flights under this callsign
Pilot: Christopher T. (26121)
Aircraft: GATES LEARJET LEARJET 35/36
(LJ35)
More flights by this aircraft type
Origin: KSAN San Diego Intl-Lindbergh
United States
Destination: KPSP Palm Springs Intl
United States
More flights between these airports :: More routes between these airports
Route: +BLD7 JLI V208 TRM
File this flight plan on PilotEdge
Remarks:
Altitude:
(Current/Filed)
15,000ft
Speed:
(Current/Filed)
330kts
Departed: 22-Nov-19 09:32 PM
Arrived: 22-Nov-19 10:03 PM
Distance/Time
Traveled:
74nm/0:31
Distance/Time
To Go:
Arrived

Flight Plot

Page will automatically refresh every two minutes.

Flight plan parsing failed; only flown route is shown


Map Options




Map Legend


Flown Route
Filed Route
Departure Airport
Arrival Airport
Navaid (VOR, NDB)
Fix

Horizontal Profiles

Position Reports

Time Latitude Longitude Heading Altitude Ground
Speed
22-Nov-19 21:07 32.731935 -117.191353 111 18ft 0kts
22-Nov-19 21:08 32.731935 -117.191352 111 18ft 0kts
22-Nov-19 21:09 32.731934 -117.191349 111 18ft 0kts
22-Nov-19 21:10 32.731933 -117.191346 111 18ft 0kts
22-Nov-19 21:11 32.731932 -117.191343 111 18ft 0kts
22-Nov-19 21:12 32.731931 -117.191341 111 18ft 0kts
22-Nov-19 21:13 32.731930 -117.191338 111 18ft 0kts
22-Nov-19 21:14 32.731929 -117.191335 111 18ft 0kts
22-Nov-19 21:15 32.731928 -117.191332 111 18ft 0kts
22-Nov-19 21:16 32.731927 -117.191329 111 18ft 0kts
22-Nov-19 21:17 32.731926 -117.191327 111 18ft 0kts
22-Nov-19 21:18 32.731925 -117.191324 111 18ft 0kts
22-Nov-19 21:19 32.731925 -117.191321 111 18ft 0kts
22-Nov-19 21:20 32.731924 -117.191318 111 18ft 0kts
22-Nov-19 21:21 32.732059 -117.190699 15 18ft 2kts
22-Nov-19 21:22 32.732235 -117.190599 29 18ft 0kts
22-Nov-19 21:23 32.732237 -117.190598 29 18ft 0kts
22-Nov-19 21:24 32.732240 -117.190596 29 18ft 0kts
22-Nov-19 21:25 32.732326 -117.188874 105 18ft 10kts
22-Nov-19 21:26 32.731037 -117.183553 106 18ft 9kts
22-Nov-19 21:27 32.730429 -117.181194 106 18ft 9kts
22-Nov-19 21:28 32.729488 -117.177274 107 18ft 6kts
22-Nov-19 21:29 32.729368 -117.176524 83 18ft 0kts
22-Nov-19 21:30 32.729390 -117.176301 83 18ft 4kts
22-Nov-19 21:31 32.730715 -117.177853 285 18ft 70kts
22-Nov-19 21:32 32.747541 -117.238428 289 3796ft 250kts
22-Nov-19 21:33 32.770323 -117.327614 268 8607ft 274kts
22-Nov-19 21:34 32.730623 -117.356779 142 13281ft 171kts
22-Nov-19 21:35 32.700580 -117.314452 134 15085ft 236kts
22-Nov-19 21:36 32.648516 -117.241899 133 14978ft 299kts
22-Nov-19 21:37 32.619388 -117.151973 86 14984ft 317kts
22-Nov-19 21:38 32.615032 -117.045387 91 14987ft 331kts
22-Nov-19 21:39 32.613790 -116.935254 80 14977ft 337kts
22-Nov-19 21:40 32.625999 -116.824517 81 14999ft 339kts
22-Nov-19 21:41 32.651733 -116.719278 41 14998ft 334kts
22-Nov-19 21:42 32.737217 -116.702475 347 15001ft 316kts
22-Nov-19 21:43 32.824834 -116.706727 7 14994ft 324kts
22-Nov-19 21:44 32.911397 -116.675537 16 14994ft 326kts
22-Nov-19 21:45 32.997334 -116.641585 14 14994ft 324kts
22-Nov-19 21:46 33.082911 -116.608049 13 14994ft 322kts
22-Nov-19 21:47 33.167050 -116.573511 26 14995ft 323kts
22-Nov-19 21:48 33.235491 -116.502905 41 15002ft 326kts
22-Nov-19 21:49 33.300087 -116.426721 42 15020ft 326kts
22-Nov-19 21:50 33.378455 -116.379640 32 15036ft 322kts
22-Nov-19 21:51 33.445147 -116.308644 43 15036ft 324kts
22-Nov-19 21:52 33.516213 -116.250988 29 13719ft 290kts
22-Nov-19 21:53 33.580853 -116.198656 32 10860ft 270kts
22-Nov-19 21:54 33.641136 -116.155208 7 7966ft 246kts
22-Nov-19 21:55 33.690088 -116.204248 301 4975ft 241kts
22-Nov-19 21:56 33.719301 -116.265844 300 3982ft 156kts
22-Nov-19 21:57 33.744545 -116.319604 300 3978ft 180kts
22-Nov-19 21:58 33.763549 -116.365458 290 3230ft 163kts
22-Nov-19 21:59 33.769670 -116.416011 277 2105ft 137kts
22-Nov-19 22:00 33.780468 -116.457878 305 1844ft 128kts
22-Nov-19 22:01 33.804303 -116.484998 324 971ft 117kts
22-Nov-19 22:02 33.827887 -116.505953 324 483ft 22kts
22-Nov-19 22:03 33.829047 -116.508097 258 483ft 0kts
22-Nov-19 22:04 33.828995 -116.508370 247 483ft 9kts
22-Nov-19 22:05 33.825852 -116.507273 173 483ft 2kts
22-Nov-19 22:06 33.824927 -116.507588 269 483ft 0kts
22-Nov-19 22:07 33.824927 -116.507588 269 483ft 0kts

Navigation Log

Ident Type
Flight plan parsing failed, navigation log unavailable